sensor_id;sensor_type;location;lat;lon;timestamp;P1;durP1;ratioP1;P2;durP2;ratioP2
44722;SDS011;30451;48.638;10.624;2023-06-19T00:01:57;3.33;;;2.90;;
44722;SDS011;30451;48.638;10.624;2023-06-19T00:04:23;3.22;;;2.65;;
44722;SDS011;30451;48.638;10.624;2023-06-19T00:06:48;3.50;;;2.78;;
44722;SDS011;30451;48.638;10.624;2023-06-19T00:09:14;3.10;;;2.70;;
44722;SDS011;30451;48.638;10.624;2023-06-19T00:11:40;3.22;;;2.70;;
44722;SDS011;30451;48.638;10.624;2023-06-19T00:14:06;2.80;;;2.40;;
44722;SDS011;30451;48.638;10.624;2023-06-19T00:16:31;3.15;;;2.60;;
44722;SDS011;30451;48.638;10.624;2023-06-19T00:18:57;3.10;;;2.40;;
44722;SDS011;30451;48.638;10.624;2023-06-19T00:21:23;2.95;;;2.60;;
44722;SDS011;30451;48.638;10.624;2023-06-19T00:23:50;3.20;;;2.78;;
44722;SDS011;30451;48.638;10.624;2023-06-19T00:26:16;3.63;;;2.88;;
44722;SDS011;30451;48.638;10.624;2023-06-19T00:28:42;3.50;;;3.00;;
44722;SDS011;30451;48.638;10.624;2023-06-19T00:31:10;3.03;;;2.60;;
44722;SDS011;30451;48.638;10.624;2023-06-19T00:33:38;3.23;;;2.53;;
44722;SDS011;30451;48.638;10.624;2023-06-19T00:36:11;3.25;;;2.65;;
44722;SDS011;30451;48.638;10.624;2023-06-19T00:38:38;3.25;;;2.90;;
44722;SDS011;30451;48.638;10.624;2023-06-19T00:41:04;3.25;;;2.85;;
44722;SDS011;30451;48.638;10.624;2023-06-19T00:43:31;3.20;;;2.90;;
44722;SDS011;30451;48.638;10.624;2023-06-19T00:46:00;3.00;;;2.58;;
44722;SDS011;30451;48.638;10.624;2023-06-19T00:48:27;3.17;;;2.75;;
44722;SDS011;30451;48.638;10.624;2023-06-19T00:50:53;3.30;;;2.88;;
44722;SDS011;30451;48.638;10.624;2023-06-19T00:53:21;3.30;;;2.70;;
44722;SDS011;30451;48.638;10.624;2023-06-19T00:55:47;2.90;;;2.60;;
44722;SDS011;30451;48.638;10.624;2023-06-19T00:58:16;3.03;;;2.63;;
44722;SDS011;30451;48.638;10.624;2023-06-19T01:00:43;3.20;;;2.53;;
44722;SDS011;30451;48.638;10.624;2023-06-19T01:03:08;3.22;;;2.70;;
44722;SDS011;30451;48.638;10.624;2023-06-19T01:05:34;2.97;;;2.50;;
44722;SDS011;30451;48.638;10.624;2023-06-19T01:10:31;3.17;;;2.70;;
44722;SDS011;30451;48.638;10.624;2023-06-19T01:13:02;3.22;;;2.92;;
44722;SDS011;30451;48.638;10.624;2023-06-19T01:15:35;3.28;;;2.75;;
44722;SDS011;30451;48.638;10.624;2023-06-19T01:18:03;3.22;;;2.60;;
44722;SDS011;30451;48.638;10.624;2023-06-19T01:20:29;2.90;;;2.40;;
44722;SDS011;30451;48.638;10.624;2023-06-19T01:22:56;3.45;;;2.60;;
44722;SDS011;30451;48.638;10.624;2023-06-19T01:25:24;3.15;;;2.60;;
44722;SDS011;30451;48.638;10.624;2023-06-19T01:27:50;3.17;;;2.60;;
44722;SDS011;30451;48.638;10.624;2023-06-19T01:30:16;2.95;;;2.55;;
44722;SDS011;30451;48.638;10.624;2023-06-19T01:35:35;3.20;;;2.67;;
44722;SDS011;30451;48.638;10.624;2023-06-19T01:40:30;3.10;;;2.60;;
44722;SDS011;30451;48.638;10.624;2023-06-19T01:43:00;3.42;;;2.47;;
44722;SDS011;30451;48.638;10.624;2023-06-19T01:45:27;3.17;;;2.72;;
44722;SDS011;30451;48.638;10.624;2023-06-19T01:47:54;3.00;;;2.30;;
44722;SDS011;30451;48.638;10.624;2023-06-19T01:50:21;3.20;;;2.53;;
44722;SDS011;30451;48.638;10.624;2023-06-19T01:52:47;3.42;;;2.80;;
44722;SDS011;30451;48.638;10.624;2023-06-19T01:55:13;3.13;;;2.80;;
44722;SDS011;30451;48.638;10.624;2023-06-19T01:57:39;3.08;;;2.53;;
44722;SDS011;30451;48.638;10.624;2023-06-19T02:00:05;2.90;;;2.55;;
44722;SDS011;30451;48.638;10.624;2023-06-19T02:02:32;2.90;;;2.42;;
44722;SDS011;30451;48.638;10.624;2023-06-19T02:04:59;3.28;;;2.80;;
44722;SDS011;30451;48.638;10.624;2023-06-19T02:07:24;3.25;;;2.60;;
44722;SDS011;30451;48.638;10.624;2023-06-19T02:09:50;3.33;;;2.60;;
44722;SDS011;30451;48.638;10.624;2023-06-19T02:12:16;3.00;;;2.50;;
44722;SDS011;30451;48.638;10.624;2023-06-19T02:14:41;3.08;;;2.60;;
44722;SDS011;30451;48.638;10.624;2023-06-19T02:17:07;3.10;;;2.70;;
44722;SDS011;30451;48.638;10.624;2023-06-19T02:19:32;3.03;;;2.70;;
44722;SDS011;30451;48.638;10.624;2023-06-19T02:21:58;2.80;;;2.50;;
44722;SDS011;30451;48.638;10.624;2023-06-19T02:24:24;3.72;;;2.65;;
44722;SDS011;30451;48.638;10.624;2023-06-19T02:26:50;3.35;;;2.58;;
44722;SDS011;30451;48.638;10.624;2023-06-19T02:29:15;2.97;;;2.50;;
44722;SDS011;30451;48.638;10.624;2023-06-19T02:31:41;2.60;;;2.40;;
44722;SDS011;30451;48.638;10.624;2023-06-19T02:34:07;2.83;;;2.45;;
44722;SDS011;30451;48.638;10.624;2023-06-19T02:36:36;2.78;;;2.50;;
44722;SDS011;30451;48.638;10.624;2023-06-19T02:39:05;3.20;;;2.80;;
44722;SDS011;30451;48.638;10.624;2023-06-19T02:41:33;2.97;;;2.45;;
44722;SDS011;30451;48.638;10.624;2023-06-19T02:43:59;3.40;;;2.63;;
44722;SDS011;30451;48.638;10.624;2023-06-19T02:46:24;3.00;;;2.40;;
44722;SDS011;30451;48.638;10.624;2023-06-19T02:48:50;2.80;;;2.30;;
44722;SDS011;30451;48.638;10.624;2023-06-19T02:51:15;3.10;;;2.50;;
44722;SDS011;30451;48.638;10.624;2023-06-19T02:53:41;2.88;;;2.45;;
44722;SDS011;30451;48.638;10.624;2023-06-19T02:56:08;3.00;;;2.30;;
44722;SDS011;30451;48.638;10.624;2023-06-19T02:58:34;2.90;;;2.50;;
44722;SDS011;30451;48.638;10.624;2023-06-19T03:01:02;3.30;;;2.65;;
44722;SDS011;30451;48.638;10.624;2023-06-19T03:03:28;3.10;;;2.60;;
44722;SDS011;30451;48.638;10.624;2023-06-19T03:05:54;3.15;;;2.65;;
44722;SDS011;30451;48.638;10.624;2023-06-19T03:08:20;2.88;;;2.47;;
44722;SDS011;30451;48.638;10.624;2023-06-19T03:10:46;3.20;;;2.63;;
44722;SDS011;30451;48.638;10.624;2023-06-19T03:13:12;2.90;;;2.40;;
44722;SDS011;30451;48.638;10.624;2023-06-19T03:15:38;3.00;;;2.50;;
44722;SDS011;30451;48.638;10.624;2023-06-19T03:18:04;2.85;;;2.35;;
44722;SDS011;30451;48.638;10.624;2023-06-19T03:20:32;3.10;;;2.50;;
44722;SDS011;30451;48.638;10.624;2023-06-19T03:22:58;2.95;;;2.40;;
44722;SDS011;30451;48.638;10.624;2023-06-19T03:25:23;2.85;;;2.50;;
44722;SDS011;30451;48.638;10.624;2023-06-19T03:27:49;3.13;;;2.47;;
44722;SDS011;30451;48.638;10.624;2023-06-19T03:30:14;2.80;;;2.40;;
44722;SDS011;30451;48.638;10.624;2023-06-19T03:32:43;3.28;;;2.50;;
44722;SDS011;30451;48.638;10.624;2023-06-19T03:35:09;3.08;;;2.70;;
44722;SDS011;30451;48.638;10.624;2023-06-19T03:37:35;2.90;;;2.42;;
44722;SDS011;30451;48.638;10.624;2023-06-19T03:40:01;2.97;;;2.58;;
44722;SDS011;30451;48.638;10.624;2023-06-19T03:42:28;2.90;;;2.47;;
44722;SDS011;30451;48.638;10.624;2023-06-19T03:44:54;2.97;;;2.50;;
44722;SDS011;30451;48.638;10.624;2023-06-19T03:47:19;3.17;;;2.60;;
44722;SDS011;30451;48.638;10.624;2023-06-19T03:49:46;3.20;;;2.60;;
44722;SDS011;30451;48.638;10.624;2023-06-19T03:52:13;3.15;;;2.45;;
44722;SDS011;30451;48.638;10.624;2023-06-19T03:54:39;2.85;;;2.40;;
44722;SDS011;30451;48.638;10.624;2023-06-19T03:57:04;2.78;;;2.30;;
44722;SDS011;30451;48.638;10.624;2023-06-19T03:59:31;2.80;;;2.40;;
44722;SDS011;30451;48.638;10.624;2023-06-19T04:01:57;3.75;;;2.80;;
44722;SDS011;30451;48.638;10.624;2023-06-19T04:04:22;2.95;;;2.50;;
44722;SDS011;30451;48.638;10.624;2023-06-19T04:06:49;2.92;;;2.53;;
44722;SDS011;30451;48.638;10.624;2023-06-19T04:09:14;2.80;;;2.40;;
44722;SDS011;30451;48.638;10.624;2023-06-19T04:11:40;3.30;;;2.80;;
44722;SDS011;30451;48.638;10.624;2023-06-19T04:14:06;3.67;;;3.00;;
44722;SDS011;30451;48.638;10.624;2023-06-19T04:16:32;3.60;;;3.20;;
44722;SDS011;30451;48.638;10.624;2023-06-19T04:18:57;3.97;;;3.53;;
44722;SDS011;30451;48.638;10.624;2023-06-19T04:21:23;4.35;;;3.63;;
44722;SDS011;30451;48.638;10.624;2023-06-19T04:23:49;7.72;;;4.38;;
44722;SDS011;30451;48.638;10.624;2023-06-19T04:26:15;4.10;;;3.53;;
44722;SDS011;30451;48.638;10.624;2023-06-19T04:28:40;5.88;;;4.55;;
44722;SDS011;30451;48.638;10.624;2023-06-19T04:31:07;4.40;;;4.00;;
44722;SDS011;30451;48.638;10.624;2023-06-19T04:33:32;4.65;;;4.13;;
44722;SDS011;30451;48.638;10.624;2023-06-19T04:35:59;4.60;;;4.20;;
44722;SDS011;30451;48.638;10.624;2023-06-19T04:38:25;4.97;;;4.47;;
44722;SDS011;30451;48.638;10.624;2023-06-19T04:40:51;5.20;;;4.28;;
44722;SDS011;30451;48.638;10.624;2023-06-19T04:43:17;4.80;;;4.30;;
44722;SDS011;30451;48.638;10.624;2023-06-19T04:45:42;7.13;;;4.50;;
44722;SDS011;30451;48.638;10.624;2023-06-19T04:48:08;4.80;;;4.30;;
44722;SDS011;30451;48.638;10.624;2023-06-19T04:50:34;5.72;;;4.78;;
44722;SDS011;30451;48.638;10.624;2023-06-19T04:53:00;5.13;;;4.60;;
44722;SDS011;30451;48.638;10.624;2023-06-19T04:55:25;4.88;;;4.38;;
44722;SDS011;30451;48.638;10.624;2023-06-19T04:57:51;5.45;;;4.40;;
44722;SDS011;30451;48.638;10.624;2023-06-19T05:00:17;5.82;;;4.40;;
44722;SDS011;30451;48.638;10.624;2023-06-19T05:02:44;5.28;;;4.38;;
44722;SDS011;30451;48.638;10.624;2023-06-19T05:05:12;5.28;;;4.22;;
44722;SDS011;30451;48.638;10.624;2023-06-19T05:07:38;4.53;;;4.07;;
44722;SDS011;30451;48.638;10.624;2023-06-19T05:10:04;4.38;;;3.97;;
44722;SDS011;30451;48.638;10.624;2023-06-19T05:12:30;4.63;;;4.00;;
44722;SDS011;30451;48.638;10.624;2023-06-19T05:14:55;4.88;;;4.20;;
44722;SDS011;30451;48.638;10.624;2023-06-19T05:17:21;5.00;;;3.80;;
44722;SDS011;30451;48.638;10.624;2023-06-19T05:19:46;5.07;;;3.83;;
44722;SDS011;30451;48.638;10.624;2023-06-19T05:22:13;5.00;;;4.07;;
44722;SDS011;30451;48.638;10.624;2023-06-19T05:24:38;4.78;;;4.28;;
44722;SDS011;30451;48.638;10.624;2023-06-19T05:27:04;4.43;;;4.03;;
44722;SDS011;30451;48.638;10.624;2023-06-19T05:29:30;4.35;;;3.75;;
44722;SDS011;30451;48.638;10.624;2023-06-19T05:31:56;4.13;;;3.58;;
44722;SDS011;30451;48.638;10.624;2023-06-19T05:34:22;3.92;;;3.40;;
44722;SDS011;30451;48.638;10.624;2023-06-19T05:36:47;4.10;;;3.50;;
44722;SDS011;30451;48.638;10.624;2023-06-19T05:39:13;4.57;;;3.35;;
44722;SDS011;30451;48.638;10.624;2023-06-19T05:41:39;4.32;;;3.70;;
44722;SDS011;30451;48.638;10.624;2023-06-19T05:44:05;4.32;;;3.83;;
44722;SDS011;30451;48.638;10.624;2023-06-19T05:46:31;5.30;;;3.70;;
44722;SDS011;30451;48.638;10.624;2023-06-19T05:48:56;5.88;;;3.78;;
44722;SDS011;30451;48.638;10.624;2023-06-19T05:51:22;4.13;;;3.50;;
44722;SDS011;30451;48.638;10.624;2023-06-19T05:53:47;3.95;;;3.50;;
44722;SDS011;30451;48.638;10.624;2023-06-19T05:56:14;4.10;;;3.70;;
44722;SDS011;30451;48.638;10.624;2023-06-19T05:58:41;4.55;;;3.78;;
44722;SDS011;30451;48.638;10.624;2023-06-19T06:01:06;4.15;;;3.70;;
44722;SDS011;30451;48.638;10.624;2023-06-19T06:03:32;4.72;;;3.85;;
44722;SDS011;30451;48.638;10.624;2023-06-19T06:05:58;4.13;;;3.42;;
44722;SDS011;30451;48.638;10.624;2023-06-19T06:08:30;4.10;;;3.40;;
44722;SDS011;30451;48.638;10.624;2023-06-19T06:10:56;4.30;;;3.80;;
44722;SDS011;30451;48.638;10.624;2023-06-19T06:13:22;4.50;;;3.90;;
44722;SDS011;30451;48.638;10.624;2023-06-19T06:15:48;4.22;;;3.45;;
44722;SDS011;30451;48.638;10.624;2023-06-19T06:18:14;4.82;;;3.80;;
44722;SDS011;30451;48.638;10.624;2023-06-19T06:20:40;4.18;;;3.60;;
44722;SDS011;30451;48.638;10.624;2023-06-19T06:23:05;4.32;;;3.72;;
44722;SDS011;30451;48.638;10.624;2023-06-19T06:25:31;4.20;;;3.80;;
44722;SDS011;30451;48.638;10.624;2023-06-19T06:27:57;4.97;;;3.90;;
44722;SDS011;30451;48.638;10.624;2023-06-19T06:30:22;4.30;;;3.88;;
44722;SDS011;30451;48.638;10.624;2023-06-19T06:32:48;4.18;;;3.40;;
44722;SDS011;30451;48.638;10.624;2023-06-19T06:35:15;3.95;;;3.30;;
44722;SDS011;30451;48.638;10.624;2023-06-19T06:37:40;3.50;;;3.20;;
44722;SDS011;30451;48.638;10.624;2023-06-19T06:40:07;4.43;;;3.70;;
44722;SDS011;30451;48.638;10.624;2023-06-19T06:42:36;3.75;;;3.35;;
44722;SDS011;30451;48.638;10.624;2023-06-19T06:45:03;4.30;;;3.67;;
44722;SDS011;30451;48.638;10.624;2023-06-19T06:47:30;4.28;;;3.28;;
44722;SDS011;30451;48.638;10.624;2023-06-19T06:49:55;3.80;;;3.40;;
44722;SDS011;30451;48.638;10.624;2023-06-19T06:52:21;4.22;;;3.53;;
44722;SDS011;30451;48.638;10.624;2023-06-19T06:54:47;4.15;;;3.75;;
44722;SDS011;30451;48.638;10.624;2023-06-19T06:57:12;3.70;;;3.13;;
44722;SDS011;30451;48.638;10.624;2023-06-19T06:59:38;3.65;;;3.22;;
44722;SDS011;30451;48.638;10.624;2023-06-19T07:02:03;3.67;;;3.20;;
44722;SDS011;30451;48.638;10.624;2023-06-19T07:04:29;3.90;;;3.50;;
44722;SDS011;30451;48.638;10.624;2023-06-19T07:06:55;4.65;;;3.60;;
44722;SDS011;30451;48.638;10.624;2023-06-19T07:09:20;4.55;;;3.55;;
44722;SDS011;30451;48.638;10.624;2023-06-19T07:11:46;4.80;;;3.63;;
44722;SDS011;30451;48.638;10.624;2023-06-19T07:14:12;3.85;;;3.30;;
44722;SDS011;30451;48.638;10.624;2023-06-19T07:16:37;3.67;;;3.20;;
44722;SDS011;30451;48.638;10.624;2023-06-19T07:19:03;3.65;;;3.25;;
44722;SDS011;30451;48.638;10.624;2023-06-19T07:21:28;3.92;;;3.53;;
44722;SDS011;30451;48.638;10.624;2023-06-19T07:23:55;3.63;;;3.10;;
44722;SDS011;30451;48.638;10.624;2023-06-19T07:26:21;4.32;;;3.60;;
44722;SDS011;30451;48.638;10.624;2023-06-19T07:28:47;4.22;;;3.50;;
44722;SDS011;30451;48.638;10.624;2023-06-19T07:31:12;3.95;;;3.47;;
44722;SDS011;30451;48.638;10.624;2023-06-19T07:33:38;3.78;;;3.15;;
44722;SDS011;30451;48.638;10.624;2023-06-19T07:36:04;4.05;;;3.38;;
44722;SDS011;30451;48.638;10.624;2023-06-19T07:38:30;4.43;;;3.20;;
44722;SDS011;30451;48.638;10.624;2023-06-19T07:40:55;4.20;;;3.60;;
44722;SDS011;30451;48.638;10.624;2023-06-19T07:43:21;3.03;;;2.72;;
44722;SDS011;30451;48.638;10.624;2023-06-19T07:45:49;4.45;;;3.47;;
44722;SDS011;30451;48.638;10.624;2023-06-19T07:48:15;4.68;;;3.38;;
44722;SDS011;30451;48.638;10.624;2023-06-19T07:50:41;3.50;;;3.17;;
44722;SDS011;30451;48.638;10.624;2023-06-19T07:53:07;3.88;;;3.28;;
44722;SDS011;30451;48.638;10.624;2023-06-19T07:55:32;4.10;;;3.30;;
44722;SDS011;30451;48.638;10.624;2023-06-19T07:58:00;3.90;;;3.40;;
44722;SDS011;30451;48.638;10.624;2023-06-19T08:00:26;3.45;;;2.97;;
44722;SDS011;30451;48.638;10.624;2023-06-19T08:02:52;3.60;;;3.20;;
44722;SDS011;30451;48.638;10.624;2023-06-19T08:05:17;3.90;;;3.20;;
44722;SDS011;30451;48.638;10.624;2023-06-19T08:07:43;4.00;;;3.35;;
44722;SDS011;30451;48.638;10.624;2023-06-19T08:10:09;4.10;;;3.20;;
44722;SDS011;30451;48.638;10.624;2023-06-19T08:12:35;3.45;;;3.00;;
44722;SDS011;30451;48.638;10.624;2023-06-19T08:15:01;3.20;;;2.80;;
44722;SDS011;30451;48.638;10.624;2023-06-19T08:17:27;3.38;;;3.00;;
44722;SDS011;30451;48.638;10.624;2023-06-19T08:19:52;3.90;;;3.05;;
44722;SDS011;30451;48.638;10.624;2023-06-19T08:22:18;4.32;;;3.20;;
44722;SDS011;30451;48.638;10.624;2023-06-19T08:24:43;3.97;;;3.03;;
44722;SDS011;30451;48.638;10.624;2023-06-19T08:27:09;3.90;;;3.28;;
44722;SDS011;30451;48.638;10.624;2023-06-19T08:29:35;3.60;;;3.13;;
44722;SDS011;30451;48.638;10.624;2023-06-19T08:32:00;3.67;;;3.22;;
44722;SDS011;30451;48.638;10.624;2023-06-19T08:34:27;3.83;;;3.30;;
44722;SDS011;30451;48.638;10.624;2023-06-19T08:36:52;3.65;;;3.20;;
44722;SDS011;30451;48.638;10.624;2023-06-19T08:39:18;3.75;;;3.05;;
44722;SDS011;30451;48.638;10.624;2023-06-19T08:41:45;4.05;;;3.15;;
44722;SDS011;30451;48.638;10.624;2023-06-19T08:44:10;3.70;;;3.20;;
44722;SDS011;30451;48.638;10.624;2023-06-19T08:46:36;4.43;;;3.17;;
44722;SDS011;30451;48.638;10.624;2023-06-19T08:49:02;3.45;;;3.08;;
44722;SDS011;30451;48.638;10.624;2023-06-19T08:51:28;3.40;;;3.05;;
44722;SDS011;30451;48.638;10.624;2023-06-19T08:54:01;3.60;;;3.13;;
44722;SDS011;30451;48.638;10.624;2023-06-19T08:56:30;3.40;;;2.90;;
44722;SDS011;30451;48.638;10.624;2023-06-19T08:59:15;3.67;;;3.17;;
44722;SDS011;30451;48.638;10.624;2023-06-19T09:01:49;4.40;;;3.10;;
44722;SDS011;30451;48.638;10.624;2023-06-19T09:04:19;3.90;;;3.15;;
44722;SDS011;30451;48.638;10.624;2023-06-19T09:09:23;3.58;;;3.05;;
44722;SDS011;30451;48.638;10.624;2023-06-19T09:12:06;3.70;;;3.30;;
44722;SDS011;30451;48.638;10.624;2023-06-19T09:17:01;3.38;;;3.00;;
44722;SDS011;30451;48.638;10.624;2023-06-19T09:19:31;3.22;;;2.92;;
44722;SDS011;30451;48.638;10.624;2023-06-19T09:22:07;3.72;;;3.22;;
44722;SDS011;30451;48.638;10.624;2023-06-19T09:24:39;3.75;;;3.05;;
44722;SDS011;30451;48.638;10.624;2023-06-19T09:27:09;3.60;;;3.03;;
44722;SDS011;30451;48.638;10.624;2023-06-19T09:29:42;3.75;;;3.15;;
44722;SDS011;30451;48.638;10.624;2023-06-19T09:32:18;3.80;;;3.08;;
44722;SDS011;30451;48.638;10.624;2023-06-19T09:34:48;3.42;;;3.00;;
44722;SDS011;30451;48.638;10.624;2023-06-19T09:37:16;3.70;;;3.15;;
44722;SDS011;30451;48.638;10.624;2023-06-19T09:39:50;3.72;;;3.05;;
44722;SDS011;30451;48.638;10.624;2023-06-19T09:42:19;3.63;;;3.00;;
44722;SDS011;30451;48.638;10.624;2023-06-19T09:44:59;3.80;;;3.30;;
44722;SDS011;30451;48.638;10.624;2023-06-19T09:47:29;3.35;;;2.83;;
44722;SDS011;30451;48.638;10.624;2023-06-19T09:49:56;3.28;;;2.80;;
44722;SDS011;30451;48.638;10.624;2023-06-19T09:52:22;3.55;;;3.05;;
44722;SDS011;30451;48.638;10.624;2023-06-19T09:54:52;3.10;;;2.58;;
44722;SDS011;30451;48.638;10.624;2023-06-19T09:57:19;3.60;;;2.90;;
44722;SDS011;30451;48.638;10.624;2023-06-19T09:59:50;3.00;;;2.60;;
44722;SDS011;30451;48.638;10.624;2023-06-19T10:02:24;3.40;;;2.72;;
44722;SDS011;30451;48.638;10.624;2023-06-19T10:04:53;4.10;;;3.00;;
44722;SDS011;30451;48.638;10.624;2023-06-19T10:07:25;3.05;;;2.60;;
44722;SDS011;30451;48.638;10.624;2023-06-19T10:10:02;3.20;;;2.80;;
44722;SDS011;30451;48.638;10.624;2023-06-19T10:17:37;3.13;;;2.40;;
44722;SDS011;30451;48.638;10.624;2023-06-19T10:20:07;3.10;;;2.67;;
44722;SDS011;30451;48.638;10.624;2023-06-19T10:22:58;3.10;;;2.70;;
44722;SDS011;30451;48.638;10.624;2023-06-19T10:25:27;3.17;;;2.50;;
44722;SDS011;30451;48.638;10.624;2023-06-19T10:27:55;3.15;;;2.70;;
44722;SDS011;30451;48.638;10.624;2023-06-19T10:30:20;3.20;;;2.67;;
44722;SDS011;30451;48.638;10.624;2023-06-19T10:32:46;3.03;;;2.45;;
44722;SDS011;30451;48.638;10.624;2023-06-19T10:35:13;2.88;;;2.50;;
44722;SDS011;30451;48.638;10.624;2023-06-19T10:37:40;2.90;;;2.60;;
44722;SDS011;30451;48.638;10.624;2023-06-19T10:40:06;3.20;;;2.80;;
44722;SDS011;30451;48.638;10.624;2023-06-19T10:42:34;3.47;;;2.60;;
44722;SDS011;30451;48.638;10.624;2023-06-19T10:45:05;3.13;;;2.55;;
44722;SDS011;30451;48.638;10.624;2023-06-19T10:47:34;3.15;;;2.58;;
44722;SDS011;30451;48.638;10.624;2023-06-19T10:50:00;3.08;;;2.40;;
44722;SDS011;30451;48.638;10.624;2023-06-19T10:52:29;3.30;;;2.60;;
44722;SDS011;30451;48.638;10.624;2023-06-19T10:54:55;2.95;;;2.50;;
44722;SDS011;30451;48.638;10.624;2023-06-19T10:57:28;2.80;;;2.40;;
44722;SDS011;30451;48.638;10.624;2023-06-19T10:59:54;3.15;;;2.63;;
44722;SDS011;30451;48.638;10.624;2023-06-19T11:02:20;3.40;;;2.90;;
44722;SDS011;30451;48.638;10.624;2023-06-19T11:04:47;3.05;;;2.60;;
44722;SDS011;30451;48.638;10.624;2023-06-19T11:07:13;3.22;;;2.65;;
44722;SDS011;30451;48.638;10.624;2023-06-19T11:09:38;3.20;;;2.60;;
44722;SDS011;30451;48.638;10.624;2023-06-19T11:12:04;3.30;;;2.70;;
44722;SDS011;30451;48.638;10.624;2023-06-19T11:14:33;3.15;;;2.55;;
44722;SDS011;30451;48.638;10.624;2023-06-19T11:17:04;3.42;;;2.88;;
44722;SDS011;30451;48.638;10.624;2023-06-19T11:19:30;3.10;;;2.60;;
44722;SDS011;30451;48.638;10.624;2023-06-19T11:21:58;3.05;;;2.53;;
44722;SDS011;30451;48.638;10.624;2023-06-19T11:24:26;3.13;;;2.65;;
44722;SDS011;30451;48.638;10.624;2023-06-19T11:26:51;3.08;;;2.63;;
44722;SDS011;30451;48.638;10.624;2023-06-19T11:29:18;3.03;;;2.40;;
44722;SDS011;30451;48.638;10.624;2023-06-19T11:31:45;2.85;;;2.30;;
44722;SDS011;30451;48.638;10.624;2023-06-19T11:34:12;3.50;;;2.33;;
44722;SDS011;30451;48.638;10.624;2023-06-19T11:36:38;2.67;;;2.20;;
44722;SDS011;30451;48.638;10.624;2023-06-19T11:39:08;2.92;;;2.50;;
44722;SDS011;30451;48.638;10.624;2023-06-19T11:41:36;2.90;;;2.30;;
44722;SDS011;30451;48.638;10.624;2023-06-19T11:44:05;2.92;;;2.42;;
44722;SDS011;30451;48.638;10.624;2023-06-19T11:46:34;3.17;;;2.30;;
44722;SDS011;30451;48.638;10.624;2023-06-19T11:49:15;3.00;;;2.40;;
44722;SDS011;30451;48.638;10.624;2023-06-19T11:51:43;2.58;;;2.03;;
44722;SDS011;30451;48.638;10.624;2023-06-19T11:54:10;3.00;;;2.05;;
44722;SDS011;30451;48.638;10.624;2023-06-19T11:56:40;2.72;;;2.08;;
44722;SDS011;30451;48.638;10.624;2023-06-19T11:59:06;2.80;;;2.20;;
44722;SDS011;30451;48.638;10.624;2023-06-19T12:01:33;2.85;;;2.40;;
44722;SDS011;30451;48.638;10.624;2023-06-19T12:04:00;2.72;;;2.20;;
44722;SDS011;30451;48.638;10.624;2023-06-19T12:06:27;2.85;;;2.20;;
44722;SDS011;30451;48.638;10.624;2023-06-19T12:08:53;2.72;;;2.20;;
44722;SDS011;30451;48.638;10.624;2023-06-19T12:11:19;2.67;;;2.17;;
44722;SDS011;30451;48.638;10.624;2023-06-19T12:13:44;2.75;;;2.10;;
44722;SDS011;30451;48.638;10.624;2023-06-19T12:16:10;2.70;;;2.20;;
44722;SDS011;30451;48.638;10.624;2023-06-19T12:18:36;2.53;;;2.20;;
44722;SDS011;30451;48.638;10.624;2023-06-19T12:21:02;2.72;;;2.20;;
44722;SDS011;30451;48.638;10.624;2023-06-19T12:23:28;2.72;;;2.13;;
44722;SDS011;30451;48.638;10.624;2023-06-19T12:25:55;2.42;;;2.03;;
44722;SDS011;30451;48.638;10.624;2023-06-19T12:28:20;3.20;;;2.50;;
44722;SDS011;30451;48.638;10.624;2023-06-19T12:30:46;2.33;;;2.05;;
44722;SDS011;30451;48.638;10.624;2023-06-19T12:35:42;2.60;;;2.10;;
44722;SDS011;30451;48.638;10.624;2023-06-19T12:38:09;3.00;;;2.08;;
44722;SDS011;30451;48.638;10.624;2023-06-19T12:40:38;2.50;;;2.08;;
44722;SDS011;30451;48.638;10.624;2023-06-19T12:43:04;3.00;;;2.28;;
44722;SDS011;30451;48.638;10.624;2023-06-19T12:45:29;3.25;;;2.28;;
44722;SDS011;30451;48.638;10.624;2023-06-19T12:47:55;2.92;;;2.20;;
44722;SDS011;30451;48.638;10.624;2023-06-19T12:50:21;3.97;;;2.35;;
44722;SDS011;30451;48.638;10.624;2023-06-19T12:52:47;2.78;;;2.20;;
44722;SDS011;30451;48.638;10.624;2023-06-19T12:55:12;2.50;;;2.10;;
44722;SDS011;30451;48.638;10.624;2023-06-19T12:57:38;2.97;;;2.30;;
44722;SDS011;30451;48.638;10.624;2023-06-19T13:00:06;3.35;;;2.30;;
44722;SDS011;30451;48.638;10.624;2023-06-19T13:02:36;2.97;;;2.13;;
44722;SDS011;30451;48.638;10.624;2023-06-19T13:05:03;2.45;;;2.13;;
44722;SDS011;30451;48.638;10.624;2023-06-19T13:07:28;2.70;;;2.10;;
44722;SDS011;30451;48.638;10.624;2023-06-19T13:09:54;2.78;;;2.25;;
44722;SDS011;30451;48.638;10.624;2023-06-19T13:12:21;3.67;;;1.92;;
44722;SDS011;30451;48.638;10.624;2023-06-19T13:14:47;2.78;;;2.30;;
44722;SDS011;30451;48.638;10.624;2023-06-19T13:17:13;3.05;;;2.22;;
44722;SDS011;30451;48.638;10.624;2023-06-19T13:19:39;2.50;;;2.10;;
44722;SDS011;30451;48.638;10.624;2023-06-19T13:22:05;2.33;;;1.85;;
44722;SDS011;30451;48.638;10.624;2023-06-19T13:24:30;3.05;;;1.98;;
44722;SDS011;30451;48.638;10.624;2023-06-19T13:26:56;2.50;;;1.90;;
44722;SDS011;30451;48.638;10.624;2023-06-19T13:29:22;3.30;;;2.10;;
44722;SDS011;30451;48.638;10.624;2023-06-19T13:31:47;2.72;;;2.03;;
44722;SDS011;30451;48.638;10.624;2023-06-19T13:34:13;3.05;;;2.05;;
44722;SDS011;30451;48.638;10.624;2023-06-19T13:36:39;3.00;;;2.08;;
44722;SDS011;30451;48.638;10.624;2023-06-19T13:39:05;3.85;;;2.10;;
44722;SDS011;30451;48.638;10.624;2023-06-19T13:41:31;3.05;;;2.20;;
44722;SDS011;30451;48.638;10.624;2023-06-19T13:43:58;2.45;;;2.00;;
44722;SDS011;30451;48.638;10.624;2023-06-19T13:46:24;1.98;;;1.73;;
44722;SDS011;30451;48.638;10.624;2023-06-19T13:48:50;3.15;;;2.30;;
44722;SDS011;30451;48.638;10.624;2023-06-19T13:51:17;3.65;;;2.28;;
44722;SDS011;30451;48.638;10.624;2023-06-19T13:53:43;2.85;;;2.28;;
44722;SDS011;30451;48.638;10.624;2023-06-19T13:56:09;2.80;;;2.50;;
44722;SDS011;30451;48.638;10.624;2023-06-19T13:58:35;2.55;;;1.98;;
44722;SDS011;30451;48.638;10.624;2023-06-19T14:01:01;2.20;;;1.80;;
44722;SDS011;30451;48.638;10.624;2023-06-19T14:03:26;2.85;;;2.10;;
44722;SDS011;30451;48.638;10.624;2023-06-19T14:05:52;3.17;;;2.20;;
44722;SDS011;30451;48.638;10.624;2023-06-19T14:08:18;4.40;;;2.03;;
44722;SDS011;30451;48.638;10.624;2023-06-19T14:10:43;3.25;;;2.30;;
44722;SDS011;30451;48.638;10.624;2023-06-19T14:13:09;2.80;;;2.15;;
44722;SDS011;30451;48.638;10.624;2023-06-19T14:15:34;3.10;;;2.33;;
44722;SDS011;30451;48.638;10.624;2023-06-19T14:18:00;2.78;;;2.20;;
44722;SDS011;30451;48.638;10.624;2023-06-19T14:20:27;4.30;;;2.33;;
44722;SDS011;30451;48.638;10.624;2023-06-19T14:22:52;4.95;;;2.65;;
44722;SDS011;30451;48.638;10.624;2023-06-19T14:25:18;3.63;;;2.30;;
44722;SDS011;30451;48.638;10.624;2023-06-19T14:27:43;3.03;;;2.28;;
44722;SDS011;30451;48.638;10.624;2023-06-19T14:30:09;3.05;;;2.30;;
44722;SDS011;30451;48.638;10.624;2023-06-19T14:32:35;2.92;;;2.30;;
44722;SDS011;30451;48.638;10.624;2023-06-19T14:35:04;4.40;;;2.33;;
44722;SDS011;30451;48.638;10.624;2023-06-19T14:37:30;2.70;;;2.20;;
44722;SDS011;30451;48.638;10.624;2023-06-19T14:39:56;3.13;;;2.25;;
44722;SDS011;30451;48.638;10.624;2023-06-19T14:42:22;2.45;;;1.90;;
44722;SDS011;30451;48.638;10.624;2023-06-19T14:44:47;2.67;;;2.28;;
44722;SDS011;30451;48.638;10.624;2023-06-19T14:47:13;3.55;;;1.83;;
44722;SDS011;30451;48.638;10.624;2023-06-19T14:49:39;3.58;;;2.00;;
44722;SDS011;30451;48.638;10.624;2023-06-19T14:52:05;2.55;;;1.90;;